createdAt,value
2022-12-05T00:00:38.162Z,51.45
2022-12-05T00:01:38.156Z,45.50
2022-12-05T00:02:38.171Z,52.43
2022-12-05T00:03:38.119Z,47.01
2022-12-05T00:04:38.120Z,45.88
2022-12-05T00:05:38.105Z,47.67
2022-12-05T00:06:38.079Z,53.80
2022-12-05T00:07:38.106Z,47.45
2022-12-05T00:08:38.065Z,54.43
2022-12-05T00:09:38.041Z,50.16
2022-12-05T00:10:38.105Z,48.47
2022-12-05T00:11:38.024Z,53.01
2022-12-05T00:12:38.027Z,56.47
2022-12-05T00:13:38.005Z,51.43
2022-12-05T00:14:38.087Z,51.82
2022-12-05T00:15:39.036Z,55.47
2022-12-05T00:16:38.076Z,51.00
2022-12-05T00:17:37.984Z,52.83
2022-12-05T00:18:38.004Z,49.10
2022-12-05T00:19:37.980Z,48.57
2022-12-05T00:20:38.000Z,47.96
2022-12-05T00:21:37.965Z,52.78
2022-12-05T00:22:37.964Z,47.15
2022-12-05T00:23:37.954Z,46.14
2022-12-05T00:24:37.927Z,62.06
2022-12-05T00:25:37.972Z,50.63
2022-12-05T00:26:37.918Z,45.82
2022-12-05T00:27:37.912Z,53.38
2022-12-05T00:28:37.922Z,50.13
2022-12-05T00:29:37.895Z,46.42
2022-12-05T00:30:37.907Z,46.27
2022-12-05T00:31:37.972Z,53.88
2022-12-05T00:32:37.875Z,49.74
2022-12-05T00:33:37.868Z,59.77
2022-12-05T00:34:37.872Z,51.99
2022-12-05T00:35:37.942Z,49.27
2022-12-05T00:36:37.848Z,52.06
2022-12-05T00:37:37.837Z,54.76
2022-12-05T00:38:37.837Z,49.61
2022-12-05T00:39:37.838Z,48.09
2022-12-05T00:40:37.867Z,48.14
2022-12-05T00:42:12.151Z,61.07
2022-12-05T00:42:37.790Z,59.71
2022-12-05T00:43:37.787Z,57.82
2022-12-05T00:44:37.774Z,60.35
2022-12-05T00:45:37.843Z,61.14
2022-12-05T00:46:37.851Z,60.41
2022-12-05T00:47:37.749Z,61.97
2022-12-05T00:48:37.752Z,59.46
2022-12-05T00:49:37.752Z,59.58
2022-12-05T00:50:37.763Z,59.45
2022-12-05T00:51:37.719Z,61.80
2022-12-05T00:52:37.714Z,62.44
2022-12-05T00:53:37.723Z,59.47
2022-12-05T00:54:38.709Z,59.83
2022-12-05T00:55:37.709Z,50.28
2022-12-05T00:56:38.680Z,51.95
2022-12-05T00:57:37.680Z,48.10
2022-12-05T00:58:37.721Z,45.93
2022-12-05T00:59:37.655Z,59.02
2022-12-05T01:00:37.686Z,51.12
2022-12-05T01:01:37.759Z,50.30
2022-12-05T01:02:37.694Z,51.54
2022-12-05T01:03:37.690Z,44.51
2022-12-05T01:04:37.630Z,47.97
2022-12-05T01:05:37.643Z,53.55
2022-12-05T01:06:37.615Z,43.64
2022-12-05T01:07:37.654Z,41.74
2022-12-05T01:08:37.596Z,49.43
2022-12-05T01:09:37.590Z,44.73
2022-12-05T01:10:37.619Z,46.26
2022-12-05T01:11:41.199Z,47.86
2022-12-05T01:12:38.566Z,52.90
2022-12-05T01:13:37.556Z,48.92
2022-12-05T01:14:37.563Z,49.91
2022-12-05T01:15:37.548Z,47.19
2022-12-05T01:16:37.657Z,51.29
2022-12-05T01:17:37.531Z,51.55
2022-12-05T01:18:37.528Z,56.78
2022-12-05T01:19:37.516Z,53.76
2022-12-05T01:20:37.516Z,47.85
2022-12-05T01:21:37.542Z,46.24
2022-12-05T01:22:37.486Z,45.19
2022-12-05T01:23:37.479Z,49.68
2022-12-05T01:24:37.483Z,49.37
2022-12-05T01:25:37.466Z,43.29
2022-12-05T01:26:37.493Z,43.47
2022-12-05T01:27:37.455Z,44.17
2022-12-05T01:28:37.633Z,43.47
2022-12-05T01:29:37.435Z,44.23
2022-12-05T01:30:37.432Z,44.36
2022-12-05T01:31:37.500Z,45.51
2022-12-05T01:32:37.408Z,46.87
2022-12-05T01:33:37.401Z,49.54
2022-12-05T01:34:37.408Z,55.47
2022-12-05T01:35:37.384Z,58.41
2022-12-05T01:36:37.412Z,49.43
2022-12-05T01:37:37.378Z,45.41
2022-12-05T01:38:37.375Z,55.96
2022-12-05T01:39:37.365Z,58.52
2022-12-05T01:40:37.354Z,52.98
2022-12-05T01:41:37.376Z,45.13
2022-12-05T01:42:37.334Z,50.49
2022-12-05T01:43:37.327Z,44.76
2022-12-05T01:44:37.325Z,45.86
2022-12-05T01:45:37.360Z,56.52
2022-12-05T01:46:37.335Z,46.16
2022-12-05T01:47:37.292Z,50.75
2022-12-05T01:48:37.294Z,60.69
2022-12-05T01:49:37.279Z,54.35
2022-12-05T01:50:37.278Z,51.69
2022-12-05T01:51:37.296Z,58.06
2022-12-05T01:52:37.265Z,52.16
2022-12-05T01:53:37.257Z,58.10
2022-12-05T01:54:37.275Z,44.91
2022-12-05T01:55:37.235Z,46.41
2022-12-05T01:56:37.261Z,49.24
2022-12-05T01:57:37.226Z,49.24
2022-12-05T01:58:37.216Z,51.04
2022-12-05T01:59:37.210Z,61.58
2022-12-05T02:00:37.207Z,50.49
2022-12-05T02:01:37.294Z,50.55
2022-12-05T02:02:37.239Z,44.22
2022-12-05T02:03:37.183Z,48.59
2022-12-05T02:04:37.184Z,46.45
2022-12-05T02:05:37.159Z,45.52
2022-12-05T02:06:37.182Z,45.94
2022-12-05T02:07:37.193Z,46.32
2022-12-05T02:08:37.164Z,51.64
2022-12-05T02:09:37.131Z,55.75
2022-12-05T02:10:37.121Z,52.40
2022-12-05T02:11:37.146Z,45.83
2022-12-05T02:12:38.945Z,46.46
2022-12-05T02:13:38.105Z,44.74
2022-12-05T02:14:37.092Z,49.48
2022-12-05T02:15:37.095Z,56.69
2022-12-05T02:16:37.175Z,55.64
2022-12-05T02:17:37.070Z,45.13
2022-12-05T02:18:37.061Z,45.53
2022-12-05T02:19:37.055Z,49.54
2022-12-05T02:20:37.070Z,46.77
2022-12-05T02:21:37.078Z,51.76
2022-12-05T02:22:37.040Z,53.06
2022-12-05T02:23:37.033Z,44.40
2022-12-05T02:24:37.023Z,52.50
2022-12-05T02:25:37.014Z,49.74
2022-12-05T02:26:37.041Z,57.29
2022-12-05T02:27:37.002Z,53.35
2022-12-05T02:28:37.004Z,45.85
2022-12-05T02:29:36.983Z,44.70
2022-12-05T02:30:36.981Z,48.75
2022-12-05T02:31:37.088Z,49.34
2022-12-05T02:32:36.970Z,62.92
2022-12-05T02:33:36.957Z,59.74
2022-12-05T02:34:36.949Z,52.31
2022-12-05T02:35:36.944Z,43.45
2022-12-05T02:36:36.966Z,46.17
2022-12-05T02:37:36.931Z,42.27
2022-12-05T02:38:36.919Z,43.39
2022-12-05T02:39:36.935Z,46.64
2022-12-05T02:40:36.908Z,49.71
2022-12-05T02:41:36.921Z,52.94
2022-12-05T02:42:36.901Z,49.22
2022-12-05T02:43:36.880Z,57.38
2022-12-05T02:44:36.877Z,50.93
2022-12-05T02:45:36.943Z,50.31
2022-12-05T02:46:36.896Z,49.07
2022-12-05T02:47:36.853Z,52.79
2022-12-05T02:48:36.865Z,44.53
2022-12-05T02:49:36.856Z,42.10
2022-12-05T02:50:36.827Z,43.62
2022-12-05T02:51:36.851Z,51.41
2022-12-05T02:52:36.816Z,50.32
2022-12-05T02:53:36.805Z,48.35
2022-12-05T02:54:36.814Z,43.60
2022-12-05T02:55:36.796Z,53.53
2022-12-05T02:56:36.818Z,47.44
2022-12-05T02:57:36.775Z,53.73
2022-12-05T02:58:36.771Z,53.80
2022-12-05T02:59:36.760Z,50.17
2022-12-05T03:00:36.751Z,55.08
2022-12-05T03:01:36.845Z,51.01
2022-12-05T03:02:36.738Z,51.82
2022-12-05T03:03:36.745Z,50.59
2022-12-05T03:04:36.771Z,48.41
2022-12-05T03:05:36.724Z,46.88
2022-12-05T03:06:36.713Z,52.46
2022-12-05T03:07:36.775Z,49.01
2022-12-05T03:08:36.693Z,49.01
2022-12-05T03:09:36.684Z,51.96
2022-12-05T03:10:36.679Z,50.26
2022-12-05T03:11:36.670Z,44.69
2022-12-05T03:12:36.698Z,47.28
2022-12-05T03:13:36.657Z,45.84
2022-12-05T03:14:36.645Z,46.96
2022-12-05T03:15:36.635Z,46.24
2022-12-05T03:16:36.642Z,45.04
2022-12-05T03:17:36.654Z,43.29
2022-12-05T03:18:36.620Z,46.35
2022-12-05T03:19:36.607Z,49.85
2022-12-05T03:20:36.596Z,50.66
2022-12-05T03:21:36.606Z,44.85
2022-12-05T03:22:36.608Z,47.39
2022-12-05T03:23:36.573Z,43.39
2022-12-05T03:24:36.564Z,46.21
2022-12-05T03:25:36.565Z,57.07
2022-12-05T03:26:36.557Z,57.31
2022-12-05T03:27:36.587Z,61.16
2022-12-05T03:28:36.534Z,61.46
2022-12-05T03:29:36.531Z,61.21
2022-12-05T03:30:36.592Z,61.58
2022-12-05T03:31:36.509Z,61.24
2022-12-05T03:32:36.530Z,59.10
2022-12-05T03:33:36.508Z,59.81
2022-12-05T03:34:36.486Z,60.16
2022-12-05T03:35:36.481Z,60.34
2022-12-05T03:36:36.478Z,60.53
2022-12-05T03:37:36.492Z,60.36
2022-12-05T03:38:36.458Z,60.84
2022-12-05T03:39:36.455Z,56.77
2022-12-05T03:40:36.441Z,50.67
2022-12-05T03:41:36.439Z,57.75
2022-12-05T03:42:36.457Z,52.42
2022-12-05T03:43:36.417Z,49.62
2022-12-05T03:44:36.414Z,58.38
2022-12-05T03:45:36.455Z,47.93
2022-12-05T03:46:36.446Z,52.73
2022-12-05T03:47:36.417Z,45.69
2022-12-05T03:48:36.374Z,51.36
2022-12-05T03:49:36.386Z,56.89
2022-12-05T03:50:36.372Z,53.85
2022-12-05T03:51:36.356Z,49.47
2022-12-05T03:52:56.857Z,49.99
2022-12-05T03:53:38.338Z,48.90
2022-12-05T03:54:36.326Z,58.16
2022-12-05T03:55:36.321Z,52.57
2022-12-05T03:56:36.323Z,49.68
2022-12-05T03:57:36.308Z,49.78
2022-12-05T03:58:36.340Z,48.80
2022-12-05T03:59:36.298Z,54.70
2022-12-05T04:00:36.288Z,49.41
2022-12-05T04:01:36.333Z,52.15
2022-12-05T04:02:36.271Z,54.81
2022-12-05T04:03:36.313Z,54.78
2022-12-05T04:04:36.283Z,50.54
2022-12-05T04:05:36.257Z,55.65
2022-12-05T04:06:36.236Z,49.43
2022-12-05T04:07:36.289Z,56.34
2022-12-05T04:08:36.253Z,48.85
2022-12-05T04:09:36.218Z,55.95
2022-12-05T04:10:36.201Z,54.26
2022-12-05T04:11:36.202Z,55.19
2022-12-05T04:12:36.187Z,55.22
2022-12-05T04:13:36.262Z,56.14
2022-12-05T04:14:36.172Z,53.88
2022-12-05T04:15:36.224Z,54.77
2022-12-05T04:16:36.165Z,50.67
2022-12-05T04:17:36.151Z,52.07
2022-12-05T04:18:36.187Z,50.64
2022-12-05T04:19:36.133Z,56.15
2022-12-05T04:20:36.125Z,58.89
2022-12-05T04:21:36.122Z,53.04
2022-12-05T04:22:36.110Z,54.13
2022-12-05T04:23:36.131Z,54.75
2022-12-05T04:24:36.106Z,56.02
2022-12-05T04:25:36.094Z,54.28
2022-12-05T04:26:36.083Z,61.69
2022-12-05T04:27:36.075Z,56.77
2022-12-05T04:28:36.104Z,54.80
2022-12-05T04:29:36.071Z,53.37
2022-12-05T04:30:36.055Z,55.87
2022-12-05T04:31:36.075Z,56.29
2022-12-05T04:32:36.040Z,58.42
2022-12-05T04:33:36.070Z,54.69
2022-12-05T04:34:36.050Z,55.67
2022-12-05T04:35:36.038Z,56.75
2022-12-05T04:36:36.017Z,51.26
2022-12-05T04:37:36.016Z,59.72
2022-12-05T04:38:35.999Z,56.06
2022-12-05T04:39:36.022Z,54.84
2022-12-05T04:40:35.987Z,55.66
2022-12-05T04:41:35.976Z,57.02
2022-12-05T04:42:35.972Z,54.52
2022-12-05T04:43:35.982Z,56.52
2022-12-05T04:44:35.981Z,57.30
2022-12-05T04:45:35.948Z,53.73
2022-12-05T04:46:35.971Z,55.21
2022-12-05T04:47:35.935Z,56.91
2022-12-05T04:48:35.923Z,57.27
2022-12-05T04:49:35.949Z,52.70
2022-12-05T04:50:35.914Z,54.49
2022-12-05T04:51:35.907Z,52.06
2022-12-05T04:52:35.892Z,54.39
2022-12-05T04:53:35.887Z,53.10
2022-12-05T04:54:35.907Z,55.21
2022-12-05T04:55:35.876Z,53.41
2022-12-05T04:56:35.861Z,56.94
2022-12-05T04:57:35.856Z,50.13
2022-12-05T04:58:35.849Z,51.70
2022-12-05T04:59:35.868Z,55.72
2022-12-05T05:00:35.828Z,52.19
2022-12-05T05:01:35.949Z,54.70
2022-12-05T05:02:35.857Z,56.52
2022-12-05T05:03:35.812Z,57.33
2022-12-05T05:04:35.828Z,56.94
2022-12-05T05:05:35.793Z,53.86
2022-12-05T05:06:35.786Z,55.51
2022-12-05T05:07:35.823Z,51.78
2022-12-05T05:08:36.791Z,56.45
2022-12-05T05:09:35.788Z,60.43
2022-12-05T05:10:35.754Z,59.12
2022-12-05T05:11:35.757Z,60.77
2022-12-05T05:12:35.747Z,67.55
2022-12-05T05:13:35.732Z,60.11
2022-12-05T05:14:35.754Z,60.50
2022-12-05T05:15:35.760Z,60.98
2022-12-05T05:16:35.779Z,60.83
2022-12-05T05:17:35.708Z,60.54
2022-12-05T05:18:35.703Z,60.28
2022-12-05T05:19:35.720Z,60.16
2022-12-05T05:20:35.683Z,60.89
2022-12-05T05:21:35.680Z,60.86
2022-12-05T05:22:35.661Z,60.32
2022-12-05T05:23:35.659Z,60.41
2022-12-05T05:24:35.684Z,60.34
2022-12-05T05:25:35.640Z,60.18
2022-12-05T05:26:35.682Z,60.89
2022-12-05T05:27:35.631Z,60.78
2022-12-05T05:28:35.628Z,61.09
2022-12-05T05:29:35.661Z,60.05
2022-12-05T05:30:35.610Z,60.55
2022-12-05T05:31:35.627Z,61.38
2022-12-05T05:32:35.600Z,60.96
2022-12-05T05:33:35.591Z,61.17
2022-12-05T05:34:35.606Z,60.35
2022-12-05T05:35:35.574Z,61.28
2022-12-05T05:36:35.562Z,64.69
2022-12-05T05:37:35.561Z,61.53
2022-12-05T05:38:35.561Z,60.80
2022-12-05T05:39:35.541Z,60.83
2022-12-05T05:40:35.560Z,62.63
2022-12-05T05:41:35.531Z,60.60
2022-12-05T05:42:35.517Z,60.46
2022-12-05T05:43:35.512Z,60.93
2022-12-05T05:44:35.512Z,60.12
2022-12-05T05:45:35.527Z,60.53
2022-12-05T05:46:35.604Z,60.80
2022-12-05T05:47:35.501Z,61.66
2022-12-05T05:48:35.476Z,62.35
2022-12-05T05:49:35.463Z,60.50
2022-12-05T05:50:35.499Z,62.24
2022-12-05T05:51:35.456Z,60.61
2022-12-05T05:52:35.447Z,61.15
2022-12-05T05:53:35.432Z,61.27
2022-12-05T05:54:35.428Z,61.85
2022-12-05T05:55:35.444Z,61.82
2022-12-05T05:56:35.414Z,63.75
2022-12-05T05:57:35.405Z,62.76
2022-12-05T05:58:35.402Z,61.13
2022-12-05T05:59:35.387Z,60.53
2022-12-05T06:00:35.447Z,60.77
2022-12-05T06:01:35.374Z,62.77
2022-12-05T06:02:35.497Z,60.54
2022-12-05T06:03:35.548Z,61.05
2022-12-05T06:04:35.357Z,58.39
2022-12-05T06:05:35.368Z,59.88
2022-12-05T06:06:35.352Z,59.19
2022-12-05T06:07:35.381Z,58.06
2022-12-05T06:08:35.321Z,58.48
2022-12-05T06:09:35.327Z,58.41
2022-12-05T06:10:35.330Z,57.62
2022-12-05T06:11:35.302Z,58.00
2022-12-05T06:12:35.301Z,58.93
2022-12-05T06:13:35.284Z,58.48
2022-12-05T06:14:35.276Z,59.77
2022-12-05T06:15:35.306Z,58.83
2022-12-05T06:16:35.302Z,56.79
2022-12-05T06:17:35.254Z,59.08
2022-12-05T06:18:35.254Z,58.33
2022-12-05T06:19:35.241Z,58.26
2022-12-05T06:20:35.294Z,58.20
2022-12-05T06:21:35.222Z,60.33
2022-12-05T06:22:35.211Z,57.41
2022-12-05T06:23:35.199Z,50.30
2022-12-05T06:24:35.201Z,54.65
2022-12-05T06:25:35.221Z,57.93
2022-12-05T06:26:35.189Z,54.76
2022-12-05T06:27:35.181Z,54.68
2022-12-05T06:28:35.210Z,51.95
2022-12-05T06:29:35.276Z,53.96
2022-12-05T06:30:35.157Z,54.46
2022-12-05T06:31:35.253Z,58.20
2022-12-05T06:32:35.136Z,52.06
2022-12-05T06:33:35.131Z,56.46
2022-12-05T06:34:35.127Z,55.78
2022-12-05T06:35:35.117Z,58.99
2022-12-05T06:36:35.137Z,53.79
2022-12-05T06:37:35.107Z,50.10
2022-12-05T06:38:39.034Z,56.05
2022-12-05T06:39:37.086Z,56.17
2022-12-05T06:40:35.078Z,58.18
2022-12-05T06:42:08.730Z,56.74
2022-12-05T06:42:35.069Z,55.04
2022-12-05T06:43:35.059Z,63.39
2022-12-05T06:44:35.057Z,58.50
2022-12-05T06:45:35.091Z,56.62
2022-12-05T06:46:35.055Z,58.35
2022-12-05T06:47:35.026Z,57.61
2022-12-05T06:48:35.104Z,54.97
2022-12-05T06:49:38.110Z,57.78
2022-12-05T06:50:36.011Z,58.27
2022-12-05T06:51:35.020Z,57.59
2022-12-05T06:52:34.976Z,58.12
2022-12-05T06:53:35.982Z,57.62
2022-12-05T06:54:34.976Z,57.85
2022-12-05T06:55:34.969Z,54.91
2022-12-05T06:56:35.078Z,57.60
2022-12-05T06:57:34.948Z,55.75
2022-12-05T06:58:35.939Z,58.25
2022-12-05T06:59:34.954Z,58.72
2022-12-05T07:00:34.932Z,58.13
2022-12-05T07:01:34.976Z,58.00
2022-12-05T07:02:34.974Z,55.24
2022-12-05T07:03:34.907Z,56.26
2022-12-05T07:04:34.890Z,56.60
2022-12-05T07:05:34.886Z,57.66
2022-12-05T07:06:34.988Z,58.47
2022-12-05T07:07:35.028Z,57.14
2022-12-05T07:08:34.868Z,54.63
2022-12-05T07:09:34.850Z,59.79
2022-12-05T07:10:34.847Z,57.38
2022-12-05T07:11:34.860Z,58.58
2022-12-05T07:12:34.827Z,54.70
2022-12-05T07:13:34.886Z,55.84
2022-12-05T07:14:50.575Z,57.94
2022-12-05T07:15:36.815Z,56.51
2022-12-05T07:16:34.912Z,56.56
2022-12-05T07:17:34.793Z,54.97
2022-12-05T07:18:34.783Z,58.71
2022-12-05T07:19:34.786Z,56.13
2022-12-05T07:21:03.392Z,59.25
2022-12-05T07:21:36.788Z,53.15
2022-12-05T07:22:34.773Z,53.49
2022-12-05T07:23:34.745Z,58.34
2022-12-05T07:24:34.748Z,58.72
2022-12-05T07:25:34.745Z,55.61
2022-12-05T07:26:34.757Z,57.65
2022-12-05T07:27:34.716Z,58.39
2022-12-05T07:28:34.714Z,55.39
2022-12-05T07:29:34.702Z,57.42
2022-12-05T07:30:34.693Z,57.19
2022-12-05T07:31:34.754Z,56.52
2022-12-05T07:32:34.675Z,58.14
2022-12-05T07:33:34.665Z,58.71
2022-12-05T07:34:34.676Z,55.76
2022-12-05T07:35:34.657Z,56.22
2022-12-05T07:36:34.684Z,56.41
2022-12-05T07:37:34.655Z,57.41
2022-12-05T07:38:34.637Z,57.58
2022-12-05T07:39:34.628Z,58.34
2022-12-05T07:40:34.619Z,54.10
2022-12-05T07:41:34.608Z,58.47
2022-12-05T07:42:35.921Z,57.73
2022-12-05T07:43:34.589Z,56.72
2022-12-05T07:44:34.594Z,56.00
2022-12-05T07:45:34.606Z,60.31
2022-12-05T07:46:34.604Z,58.45
2022-12-05T07:47:34.765Z,57.14
2022-12-05T07:48:34.585Z,55.31
2022-12-05T07:49:34.558Z,58.40
2022-12-05T07:50:34.544Z,57.47
2022-12-05T07:51:34.548Z,53.22
2022-12-05T07:52:34.557Z,56.22
2022-12-05T07:53:34.519Z,53.57
2022-12-05T07:54:34.519Z,54.75
2022-12-05T07:55:34.499Z,55.24
2022-12-05T07:56:35.497Z,56.83
2022-12-05T07:57:34.512Z,58.41
2022-12-05T07:58:34.482Z,52.83
2022-12-05T07:59:34.476Z,57.75
2022-12-05T08:00:34.479Z,56.33
2022-12-05T08:01:34.528Z,51.77
2022-12-05T08:02:37.718Z,56.80
2022-12-05T08:03:35.440Z,64.04
2022-12-05T08:04:34.435Z,54.06
2022-12-05T08:05:34.424Z,55.35
2022-12-05T08:06:35.229Z,54.47
2022-12-05T08:07:34.484Z,56.52
2022-12-05T08:08:34.402Z,57.42
2022-12-05T08:09:34.401Z,51.24
2022-12-05T08:10:34.397Z,60.29
2022-12-05T08:11:34.381Z,54.88
2022-12-05T08:12:34.397Z,57.94
2022-12-05T08:13:34.380Z,56.06
2022-12-05T08:14:34.358Z,53.82
2022-12-05T08:15:34.349Z,58.63
2022-12-05T08:16:34.390Z,56.24
2022-12-05T08:17:34.367Z,57.53
2022-12-05T08:18:34.328Z,55.50
2022-12-05T08:19:34.325Z,56.94
2022-12-05T08:20:34.329Z,55.54
2022-12-05T08:21:34.317Z,58.39
2022-12-05T08:22:34.327Z,55.17
2022-12-05T08:23:34.295Z,55.40
2022-12-05T08:24:34.286Z,52.80
2022-12-05T08:25:34.268Z,57.23
2022-12-05T08:26:34.264Z,56.74
2022-12-05T08:27:34.290Z,53.83
2022-12-05T08:28:34.246Z,57.08
2022-12-05T08:29:34.279Z,59.58
2022-12-05T08:30:34.276Z,58.30
2022-12-05T08:31:34.269Z,58.38
2022-12-05T08:32:34.257Z,56.45
2022-12-05T08:33:34.214Z,58.71
2022-12-05T08:34:34.209Z,56.80
2022-12-05T08:35:34.204Z,55.88
2022-12-05T08:36:34.190Z,58.41
2022-12-05T08:37:34.224Z,58.06
2022-12-05T08:38:34.173Z,57.98
2022-12-05T08:39:38.440Z,52.21
2022-12-05T08:40:35.162Z,57.80
2022-12-05T08:41:34.160Z,59.38
2022-12-05T08:42:34.167Z,55.98
2022-12-05T08:43:34.142Z,57.10
2022-12-05T08:44:34.134Z,59.01
2022-12-05T08:45:34.124Z,58.19
2022-12-05T08:46:34.182Z,55.85
2022-12-05T08:47:34.143Z,58.63
2022-12-05T08:48:34.104Z,57.86
2022-12-05T08:49:34.099Z,52.00
2022-12-05T08:50:34.089Z,58.44
2022-12-05T08:51:34.071Z,59.32
2022-12-05T08:52:34.089Z,58.85
2022-12-05T08:53:34.064Z,50.81
2022-12-05T08:54:34.050Z,56.16
2022-12-05T08:55:34.156Z,51.99
2022-12-05T08:56:34.036Z,50.60
2022-12-05T08:57:34.064Z,53.94
2022-12-05T08:58:34.023Z,54.79
2022-12-05T08:59:34.015Z,53.46
2022-12-05T09:00:35.006Z,54.85
2022-12-05T09:01:34.119Z,52.69
2022-12-05T09:02:34.074Z,51.87
2022-12-05T09:03:33.983Z,53.65
2022-12-05T09:04:34.009Z,52.26
2022-12-05T09:05:33.997Z,51.67
2022-12-05T09:06:33.966Z,51.24
2022-12-05T09:07:34.039Z,56.54
2022-12-05T09:08:33.946Z,58.27
2022-12-05T09:09:33.940Z,53.04
2022-12-05T09:10:33.943Z,47.91
2022-12-05T09:11:33.922Z,47.86
2022-12-05T09:12:33.938Z,47.01
2022-12-05T09:13:33.914Z,55.73
2022-12-05T09:14:33.898Z,57.29
2022-12-05T09:15:33.948Z,55.23
2022-12-05T09:16:37.875Z,54.78
2022-12-05T09:17:34.897Z,56.23
2022-12-05T09:18:33.862Z,53.04
2022-12-05T09:19:33.859Z,54.59
2022-12-05T09:20:33.872Z,54.96
2022-12-05T09:21:33.909Z,52.69
2022-12-05T09:22:33.863Z,54.89
2022-12-05T09:23:33.830Z,57.27
2022-12-05T09:24:33.819Z,59.30
2022-12-05T09:25:33.824Z,55.83
2022-12-05T09:26:33.808Z,58.44
2022-12-05T09:27:33.836Z,54.20
2022-12-05T09:28:33.796Z,56.45
2022-12-05T09:29:33.787Z,58.57
2022-12-05T09:30:33.780Z,55.01
2022-12-05T09:31:33.870Z,58.65
2022-12-05T09:32:33.767Z,58.61
2022-12-05T09:33:33.782Z,53.92
2022-12-05T09:34:33.748Z,57.99
2022-12-05T09:35:33.743Z,56.83
2022-12-05T09:36:33.735Z,58.86
2022-12-05T09:37:40.901Z,57.56
2022-12-05T09:38:35.749Z,55.65
2022-12-05T09:39:33.719Z,56.21
2022-12-05T09:40:33.738Z,52.94
2022-12-05T09:41:33.696Z,55.92
2022-12-05T09:42:33.684Z,57.08
2022-12-05T09:43:33.720Z,54.31
2022-12-05T09:44:33.669Z,57.59
2022-12-05T09:45:33.663Z,60.20
2022-12-05T09:46:35.755Z,58.10
2022-12-05T09:47:34.648Z,56.25
2022-12-05T09:48:33.668Z,54.68
2022-12-05T09:49:33.634Z,58.79
2022-12-05T09:50:33.627Z,57.66
2022-12-05T09:51:33.620Z,57.55
2022-12-05T09:52:33.615Z,56.13
2022-12-05T09:53:33.629Z,57.44
2022-12-05T09:54:33.600Z,55.46
2022-12-05T09:55:33.583Z,56.72
2022-12-05T09:56:33.582Z,55.22
2022-12-05T09:57:34.148Z,57.21
2022-12-05T09:58:34.603Z,55.62
2022-12-05T09:59:33.559Z,55.48
2022-12-05T10:00:33.557Z,55.46
2022-12-05T10:01:33.601Z,56.05
2022-12-05T10:02:33.534Z,60.11
2022-12-05T10:03:33.551Z,56.37
2022-12-05T10:04:33.668Z,57.86
2022-12-05T10:05:33.513Z,53.52
2022-12-05T10:06:33.513Z,58.37
2022-12-05T10:07:33.549Z,59.50
2022-12-05T10:08:33.523Z,53.35
2022-12-05T10:09:33.482Z,56.84
2022-12-05T10:10:33.471Z,52.64
2022-12-05T10:11:33.461Z,59.96
2022-12-05T10:12:33.457Z,56.48
2022-12-05T10:13:33.472Z,49.64
2022-12-05T10:14:33.438Z,52.99
2022-12-05T10:15:33.506Z,57.38
2022-12-05T10:16:33.529Z,56.34
2022-12-05T10:17:33.412Z,57.00
2022-12-05T10:18:33.441Z,56.21
2022-12-05T10:19:33.414Z,57.65
2022-12-05T10:20:33.389Z,55.29
2022-12-05T10:21:33.385Z,58.79
2022-12-05T10:22:33.391Z,56.70
2022-12-05T10:23:59.478Z,58.24
2022-12-05T10:24:35.367Z,57.71
2022-12-05T10:25:33.359Z,59.70
2022-12-05T10:26:33.348Z,52.79
2022-12-05T10:27:39.549Z,57.95
2022-12-05T10:28:35.366Z,55.77
2022-12-05T10:29:33.326Z,56.72
2022-12-05T10:30:33.328Z,54.94
2022-12-05T10:31:33.356Z,53.15
2022-12-05T10:32:33.305Z,55.16
2022-12-05T10:33:33.330Z,52.97
2022-12-05T10:34:33.300Z,57.82
2022-12-05T10:35:33.283Z,56.74
2022-12-05T10:36:33.275Z,55.54
2022-12-05T10:37:33.274Z,57.64
2022-12-05T10:38:33.269Z,60.33
2022-12-05T10:39:33.281Z,55.34
2022-12-05T10:40:33.272Z,55.90
2022-12-05T10:41:33.238Z,55.24
2022-12-05T10:42:33.235Z,57.25
2022-12-05T10:43:33.233Z,57.63
2022-12-05T10:44:33.236Z,60.43
2022-12-05T10:45:33.209Z,57.55
2022-12-05T10:46:33.240Z,55.84
2022-12-05T10:47:33.193Z,56.98
2022-12-05T10:48:33.187Z,56.59
2022-12-05T10:49:33.200Z,57.15
2022-12-05T10:50:33.172Z,55.88
2022-12-05T10:51:37.528Z,55.42
2022-12-05T10:52:34.156Z,53.17
2022-12-05T10:53:33.147Z,58.09
2022-12-05T10:54:33.171Z,61.64
2022-12-05T10:55:33.131Z,55.05
2022-12-05T10:56:33.123Z,52.72
2022-12-05T10:57:33.127Z,57.38
2022-12-05T10:58:33.114Z,57.13
2022-12-05T10:59:33.131Z,57.85
2022-12-05T11:00:33.098Z,56.57
2022-12-05T11:01:33.125Z,57.85
2022-12-05T11:02:33.085Z,59.46
2022-12-05T11:03:33.074Z,54.00
2022-12-05T11:04:33.099Z,57.99
2022-12-05T11:05:33.126Z,57.08
2022-12-05T11:06:33.053Z,53.93
2022-12-05T11:07:33.093Z,56.79
2022-12-05T11:09:02.710Z,56.60
2022-12-05T11:09:35.054Z,55.49
2022-12-05T11:10:33.018Z,58.18
2022-12-05T11:11:33.008Z,57.00
2022-12-05T11:12:33.008Z,56.26
2022-12-05T11:13:33.003Z,53.16
2022-12-05T11:14:33.023Z,60.75
2022-12-05T11:15:32.985Z,58.61
2022-12-05T11:16:33.162Z,56.20
2022-12-05T11:17:32.966Z,53.13
2022-12-05T11:18:32.964Z,58.98
2022-12-05T11:19:32.995Z,56.03
2022-12-05T11:20:32.960Z,54.07
2022-12-05T11:21:32.940Z,55.23
2022-12-05T11:22:32.936Z,56.12
2022-12-05T11:23:32.929Z,56.60
2022-12-05T11:24:32.947Z,54.98
2022-12-05T11:25:32.914Z,57.63
2022-12-05T11:26:32.907Z,56.93
2022-12-05T11:27:32.893Z,59.11
2022-12-05T11:28:32.961Z,56.96
2022-12-05T11:29:32.876Z,55.15
2022-12-05T11:30:32.896Z,58.88
2022-12-05T11:31:32.948Z,59.95
2022-12-05T11:32:32.849Z,61.36
2022-12-05T11:33:32.850Z,60.86
2022-12-05T11:34:32.869Z,62.45
2022-12-05T11:35:32.833Z,61.84
2022-12-05T11:36:32.823Z,61.58
2022-12-05T11:37:32.818Z,61.07
2022-12-05T11:38:32.816Z,61.99
2022-12-05T11:39:33.862Z,61.76
2022-12-05T11:40:37.759Z,61.65
2022-12-05T11:41:34.788Z,60.26
2022-12-05T11:42:32.779Z,61.75
2022-12-05T11:43:32.768Z,60.60
2022-12-05T11:44:32.770Z,56.81
2022-12-05T11:45:32.781Z,54.34
2022-12-05T11:46:32.796Z,54.56
2022-12-05T11:47:32.735Z,57.79
2022-12-05T11:48:32.724Z,58.01
2022-12-05T11:49:33.727Z,58.35
2022-12-05T11:50:32.747Z,58.19
2022-12-05T11:51:32.712Z,58.05
2022-12-05T11:52:36.087Z,58.50
2022-12-05T11:53:34.710Z,57.79
2022-12-05T11:55:03.443Z,55.59
2022-12-05T11:55:34.702Z,56.70
2022-12-05T11:56:32.675Z,56.60
2022-12-05T11:57:32.660Z,59.08
2022-12-05T11:58:32.657Z,56.13
2022-12-05T11:59:32.652Z,58.10
2022-12-05T12:00:32.665Z,55.19
2022-12-05T12:01:32.735Z,57.49
2022-12-05T12:02:32.738Z,58.21
2022-12-05T12:03:33.653Z,55.55
2022-12-05T12:04:33.614Z,56.34
2022-12-05T12:05:32.632Z,58.64
2022-12-05T12:06:32.603Z,56.75
2022-12-05T12:07:32.616Z,60.88
2022-12-05T12:08:32.591Z,58.07
2022-12-05T12:09:32.578Z,57.17
2022-12-05T12:10:32.604Z,57.44
2022-12-05T12:11:32.574Z,58.32
2022-12-05T12:12:32.557Z,59.10
2022-12-05T12:13:32.551Z,55.06
2022-12-05T12:14:32.534Z,57.28
2022-12-05T12:15:32.582Z,58.12
2022-12-05T12:16:32.591Z,56.58
2022-12-05T12:17:32.522Z,54.78
2022-12-05T12:18:32.516Z,58.56
2022-12-05T12:19:32.504Z,57.42
2022-12-05T12:20:32.529Z,58.37
2022-12-05T12:21:38.269Z,59.36
2022-12-05T12:22:34.491Z,56.47
2022-12-05T12:23:32.496Z,56.80
2022-12-05T12:24:32.477Z,60.42
2022-12-05T12:25:32.454Z,57.88
2022-12-05T12:26:32.535Z,57.41
2022-12-05T12:27:32.440Z,56.63
2022-12-05T12:28:32.435Z,56.31
2022-12-05T12:29:32.424Z,56.55
2022-12-05T12:30:32.420Z,57.28
2022-12-05T12:31:32.473Z,56.86
2022-12-05T12:32:32.397Z,56.78
2022-12-05T12:33:32.409Z,57.65
2022-12-05T12:34:32.389Z,62.75
2022-12-05T12:35:32.388Z,53.43
2022-12-05T12:36:32.400Z,56.23
2022-12-05T12:37:32.365Z,56.82
2022-12-05T12:38:32.365Z,58.48
2022-12-05T12:39:32.354Z,57.58
2022-12-05T12:40:32.345Z,57.51
2022-12-05T12:41:32.364Z,55.57
2022-12-05T12:43:08.291Z,57.98
2022-12-05T12:43:53.179Z,60.16
2022-12-05T12:44:34.313Z,60.24
2022-12-05T12:45:32.360Z,62.15
2022-12-05T12:46:32.397Z,61.46
2022-12-05T12:47:32.289Z,61.05
2022-12-05T12:48:32.278Z,61.25
2022-12-05T12:49:32.272Z,61.69
2022-12-05T12:50:32.262Z,61.05
2022-12-05T12:51:32.285Z,60.73
2022-12-05T12:52:32.254Z,60.81